Terminal Aerodrome Forecast
Issued by NWS

Home | Current Version | Previous Version | Text Only | Print | Product List | Glossary On
Versions: 1 2 3 4 5 6 7 8 9 10 11 12 13 14 15 16
512
FTUS43 KLSX 242327
TAFUIN
TAF
KUIN 242327Z 2500/2524 26008KT P6SM SCT035 SCT080
     FM250100 32007KT P6SM VCTS BKN060CB
     FM250600 36006KT P6SM BKN050
     FM251400 03007KT P6SM SCT250=

USA.gov is the U.S. government's official web portal to all federal, state and local government web resources and services.